sensor_id;sensor_type;location;lat;lon;timestamp;pressure;altitude;pressure_sealevel;temperature;humidity
13869;BME280;7004;48.206;16.402;2023-06-10T00:02:22;99324.16;;;20.99;78.62
13869;BME280;7004;48.206;16.402;2023-06-10T00:04:48;99325.78;;;21.16;78.94
13869;BME280;7004;48.206;16.402;2023-06-10T00:07:14;99328.94;;;20.80;80.17
13869;BME280;7004;48.206;16.402;2023-06-10T00:09:40;99323.22;;;20.91;80.07
13869;BME280;7004;48.206;16.402;2023-06-10T00:12:07;99329.38;;;21.00;78.72
13869;BME280;7004;48.206;16.402;2023-06-10T00:14:39;99327.72;;;20.99;79.08
13869;BME280;7004;48.206;16.402;2023-06-10T00:17:08;99325.88;;;21.00;79.13
13869;BME280;7004;48.206;16.402;2023-06-10T00:19:37;99329.38;;;21.00;79.70
13869;BME280;7004;48.206;16.402;2023-06-10T00:22:07;99323.53;;;20.97;79.78
13869;BME280;7004;48.206;16.402;2023-06-10T00:24:35;99337.66;;;20.82;79.96
13869;BME280;7004;48.206;16.402;2023-06-10T00:27:01;99333.03;;;20.35;82.54
13869;BME280;7004;48.206;16.402;2023-06-10T00:29:27;99338.22;;;20.61;80.64
13869;BME280;7004;48.206;16.402;2023-06-10T00:31:53;99332.81;;;20.86;79.63
13869;BME280;7004;48.206;16.402;2023-06-10T00:34:24;99340.88;;;20.69;81.06
13869;BME280;7004;48.206;16.402;2023-06-10T00:36:50;99333.00;;;20.51;81.07
13869;BME280;7004;48.206;16.402;2023-06-10T00:39:16;99338.56;;;20.66;81.06
13869;BME280;7004;48.206;16.402;2023-06-10T00:41:42;99338.81;;;20.88;80.21
13869;BME280;7004;48.206;16.402;2023-06-10T00:44:08;99332.91;;;21.01;79.03
13869;BME280;7004;48.206;16.402;2023-06-10T00:46:35;99342.69;;;20.85;78.96
13869;BME280;7004;48.206;16.402;2023-06-10T00:49:01;99341.41;;;20.65;81.10
13869;BME280;7004;48.206;16.402;2023-06-10T00:51:27;99351.16;;;20.33;83.13
13869;BME280;7004;48.206;16.402;2023-06-10T00:53:54;99353.31;;;20.79;80.43
13869;BME280;7004;48.206;16.402;2023-06-10T00:56:20;99355.19;;;20.45;81.93
13869;BME280;7004;48.206;16.402;2023-06-10T00:58:48;99349.25;;;20.83;80.10
13869;BME280;7004;48.206;16.402;2023-06-10T01:01:15;99354.84;;;20.57;81.76
13869;BME280;7004;48.206;16.402;2023-06-10T01:03:41;99357.50;;;20.48;82.66
13869;BME280;7004;48.206;16.402;2023-06-10T01:06:36;99360.22;;;20.57;82.12
13869;BME280;7004;48.206;16.402;2023-06-10T01:12:16;99363.22;;;20.45;83.13
13869;BME280;7004;48.206;16.402;2023-06-10T01:14:45;99360.22;;;20.57;83.00
13869;BME280;7004;48.206;16.402;2023-06-10T01:17:12;99364.59;;;20.58;82.97
13869;BME280;7004;48.206;16.402;2023-06-10T01:19:38;99363.56;;;20.67;82.02
13869;BME280;7004;48.206;16.402;2023-06-10T01:22:06;99357.84;;;20.78;81.90
13869;BME280;7004;48.206;16.402;2023-06-10T01:24:33;99361.94;;;21.05;82.06
13869;BME280;7004;48.206;16.402;2023-06-10T01:27:01;99363.59;;;21.06;81.47
13869;BME280;7004;48.206;16.402;2023-06-10T01:29:56;99358.22;;;21.14;80.45
13869;BME280;7004;48.206;16.402;2023-06-10T01:32:33;99358.91;;;21.08;80.45
13869;BME280;7004;48.206;16.402;2023-06-10T01:35:02;99358.78;;;21.02;80.69
13869;BME280;7004;48.206;16.402;2023-06-10T01:37:29;99347.38;;;21.31;79.00
13869;BME280;7004;48.206;16.402;2023-06-10T01:39:59;99357.75;;;21.03;80.22
13869;BME280;7004;48.206;16.402;2023-06-10T01:42:26;99358.47;;;20.80;82.21
13869;BME280;7004;48.206;16.402;2023-06-10T01:44:53;99357.94;;;20.93;81.96
13869;BME280;7004;48.206;16.402;2023-06-10T01:47:22;99355.16;;;21.26;79.72
13869;BME280;7004;48.206;16.402;2023-06-10T01:49:48;99362.53;;;20.51;82.54
13869;BME280;7004;48.206;16.402;2023-06-10T01:52:14;99350.84;;;21.08;81.11
13869;BME280;7004;48.206;16.402;2023-06-10T01:54:41;99342.31;;;21.36;80.43
13869;BME280;7004;48.206;16.402;2023-06-10T01:57:07;99349.56;;;21.35;80.55
13869;BME280;7004;48.206;16.402;2023-06-10T01:59:41;99360.88;;;21.23;79.76
13869;BME280;7004;48.206;16.402;2023-06-10T02:02:10;99362.16;;;20.87;83.23
13869;BME280;7004;48.206;16.402;2023-06-10T02:04:37;99355.75;;;21.44;80.57
13869;BME280;7004;48.206;16.402;2023-06-10T02:07:03;99355.94;;;21.34;80.72
13869;BME280;7004;48.206;16.402;2023-06-10T02:09:33;99367.34;;;20.97;81.75
13869;BME280;7004;48.206;16.402;2023-06-10T02:12:05;99365.25;;;21.15;82.98
13869;BME280;7004;48.206;16.402;2023-06-10T02:14:33;99366.22;;;21.31;81.65
13869;BME280;7004;48.206;16.402;2023-06-10T02:16:59;99358.44;;;21.44;80.19
13869;BME280;7004;48.206;16.402;2023-06-10T02:19:28;99360.47;;;21.34;81.27
13869;BME280;7004;48.206;16.402;2023-06-10T02:21:56;99365.06;;;21.25;81.35
13869;BME280;7004;48.206;16.402;2023-06-10T02:24:22;99366.19;;;20.91;83.00
13869;BME280;7004;48.206;16.402;2023-06-10T02:26:48;99359.97;;;20.99;82.36
13869;BME280;7004;48.206;16.402;2023-06-10T02:29:15;99364.56;;;20.74;84.02
13869;BME280;7004;48.206;16.402;2023-06-10T02:31:41;99354.81;;;21.21;82.69
13869;BME280;7004;48.206;16.402;2023-06-10T02:34:07;99355.47;;;20.75;85.10
13869;BME280;7004;48.206;16.402;2023-06-10T02:36:33;99363.16;;;20.94;84.00
13869;BME280;7004;48.206;16.402;2023-06-10T02:39:02;99357.88;;;21.17;83.00
13869;BME280;7004;48.206;16.402;2023-06-10T02:41:30;99348.19;;;21.00;83.78
13869;BME280;7004;48.206;16.402;2023-06-10T02:43:56;99356.13;;;20.93;83.64
13869;BME280;7004;48.206;16.402;2023-06-10T02:46:22;99364.09;;;20.13;87.19
13869;BME280;7004;48.206;16.402;2023-06-10T02:48:49;99364.09;;;20.21;87.39
13869;BME280;7004;48.206;16.402;2023-06-10T02:51:17;99359.72;;;21.09;82.79
13869;BME280;7004;48.206;16.402;2023-06-10T02:53:43;99372.59;;;21.30;81.44
13869;BME280;7004;48.206;16.402;2023-06-10T02:56:09;99372.09;;;20.79;83.75
13869;BME280;7004;48.206;16.402;2023-06-10T02:58:35;99368.59;;;20.45;85.67
13869;BME280;7004;48.206;16.402;2023-06-10T03:01:01;99369.63;;;20.44;86.34
13869;BME280;7004;48.206;16.402;2023-06-10T03:03:27;99373.41;;;20.83;84.73
13869;BME280;7004;48.206;16.402;2023-06-10T03:05:53;99376.63;;;20.70;84.43
13869;BME280;7004;48.206;16.402;2023-06-10T03:08:20;99379.00;;;20.65;85.36
13869;BME280;7004;48.206;16.402;2023-06-10T03:10:46;99382.84;;;20.46;86.26
13869;BME280;7004;48.206;16.402;2023-06-10T03:13:12;99382.69;;;20.47;87.28
13869;BME280;7004;48.206;16.402;2023-06-10T03:15:38;99371.63;;;20.26;87.96
13869;BME280;7004;48.206;16.402;2023-06-10T03:18:06;99371.91;;;20.80;85.11
13869;BME280;7004;48.206;16.402;2023-06-10T03:20:33;99372.56;;;20.90;84.07
13869;BME280;7004;48.206;16.402;2023-06-10T03:23:04;99371.00;;;21.12;82.29
13869;BME280;7004;48.206;16.402;2023-06-10T03:25:34;99374.31;;;20.18;87.91
13869;BME280;7004;48.206;16.402;2023-06-10T03:28:01;99378.00;;;20.49;86.77
13869;BME280;7004;48.206;16.402;2023-06-10T03:30:28;99374.44;;;20.49;87.00
13869;BME280;7004;48.206;16.402;2023-06-10T03:32:54;99375.34;;;20.58;86.43
13869;BME280;7004;48.206;16.402;2023-06-10T03:35:20;99379.31;;;19.88;89.34
13869;BME280;7004;48.206;16.402;2023-06-10T03:37:46;99369.56;;;20.85;86.31
13869;BME280;7004;48.206;16.402;2023-06-10T03:40:12;99370.56;;;20.84;85.74
13869;BME280;7004;48.206;16.402;2023-06-10T03:42:38;99373.53;;;21.45;82.61
13869;BME280;7004;48.206;16.402;2023-06-10T03:45:05;99370.31;;;21.10;84.25
13869;BME280;7004;48.206;16.402;2023-06-10T03:47:36;99380.50;;;20.43;86.08
13869;BME280;7004;48.206;16.402;2023-06-10T03:50:07;99379.81;;;20.49;85.15
13869;BME280;7004;48.206;16.402;2023-06-10T03:52:37;99376.47;;;21.27;83.52
13869;BME280;7004;48.206;16.402;2023-06-10T03:55:04;99381.69;;;20.40;85.29
13869;BME280;7004;48.206;16.402;2023-06-10T03:57:30;99386.22;;;20.64;85.43
13869;BME280;7004;48.206;16.402;2023-06-10T03:59:58;99385.88;;;20.67;84.74
13869;BME280;7004;48.206;16.402;2023-06-10T04:02:24;99384.28;;;21.06;83.19
13869;BME280;7004;48.206;16.402;2023-06-10T04:04:50;99385.38;;;20.47;86.21
13869;BME280;7004;48.206;16.402;2023-06-10T04:07:17;99385.03;;;20.01;87.50
13869;BME280;7004;48.206;16.402;2023-06-10T04:09:46;99390.22;;;20.44;86.09
13869;BME280;7004;48.206;16.402;2023-06-10T04:12:12;99384.50;;;20.96;83.17
13869;BME280;7004;48.206;16.402;2023-06-10T04:14:39;99385.78;;;21.08;83.18
13869;BME280;7004;48.206;16.402;2023-06-10T04:17:05;99381.63;;;20.98;83.42
13869;BME280;7004;48.206;16.402;2023-06-10T04:19:32;99391.25;;;20.51;85.57
13869;BME280;7004;48.206;16.402;2023-06-10T04:22:01;99392.56;;;20.80;84.45
13869;BME280;7004;48.206;16.402;2023-06-10T04:24:28;99386.03;;;20.74;84.09
13869;BME280;7004;48.206;16.402;2023-06-10T04:26:54;99377.09;;;20.90;83.95
13869;BME280;7004;48.206;16.402;2023-06-10T04:29:20;99382.19;;;21.24;81.20
13869;BME280;7004;48.206;16.402;2023-06-10T04:31:46;99386.97;;;21.85;78.90
13869;BME280;7004;48.206;16.402;2023-06-10T04:34:12;99377.72;;;21.48;81.39
13869;BME280;7004;48.206;16.402;2023-06-10T04:36:39;99379.38;;;22.11;78.05
13869;BME280;7004;48.206;16.402;2023-06-10T04:39:05;99381.47;;;20.91;82.83
13869;BME280;7004;48.206;16.402;2023-06-10T04:41:31;99384.25;;;21.62;80.11
13869;BME280;7004;48.206;16.402;2023-06-10T04:43:57;99384.03;;;21.24;82.34
13869;BME280;7004;48.206;16.402;2023-06-10T04:46:24;99381.28;;;21.48;80.29
13869;BME280;7004;48.206;16.402;2023-06-10T04:48:50;99385.22;;;22.15;76.79
13869;BME280;7004;48.206;16.402;2023-06-10T04:51:16;99385.22;;;21.69;78.20
13869;BME280;7004;48.206;16.402;2023-06-10T04:53:42;99380.97;;;21.35;80.42
13869;BME280;7004;48.206;16.402;2023-06-10T04:56:08;99379.59;;;21.47;80.82
13869;BME280;7004;48.206;16.402;2023-06-10T04:58:35;99387.00;;;21.37;79.97
13869;BME280;7004;48.206;16.402;2023-06-10T05:01:01;99376.28;;;21.68;78.98
13869;BME280;7004;48.206;16.402;2023-06-10T05:03:27;99379.88;;;21.84;79.30
13869;BME280;7004;48.206;16.402;2023-06-10T05:05:53;99382.00;;;22.42;76.12
13869;BME280;7004;48.206;16.402;2023-06-10T05:08:20;99380.09;;;22.28;76.38
13869;BME280;7004;48.206;16.402;2023-06-10T05:10:46;99382.22;;;22.56;74.72
13869;BME280;7004;48.206;16.402;2023-06-10T05:13:12;99390.66;;;21.84;78.31
13869;BME280;7004;48.206;16.402;2023-06-10T05:15:38;99390.03;;;20.94;82.04
13869;BME280;7004;48.206;16.402;2023-06-10T05:18:05;99389.06;;;22.20;78.38
13869;BME280;7004;48.206;16.402;2023-06-10T05:20:31;99396.44;;;22.27;76.94
13869;BME280;7004;48.206;16.402;2023-06-10T05:22:57;99392.41;;;22.22;77.29
13869;BME280;7004;48.206;16.402;2023-06-10T05:25:26;99389.78;;;22.37;76.51
13869;BME280;7004;48.206;16.402;2023-06-10T05:27:53;99393.28;;;21.69;79.45
13869;BME280;7004;48.206;16.402;2023-06-10T05:30:19;99389.97;;;21.58;80.45
13869;BME280;7004;48.206;16.402;2023-06-10T05:32:45;99391.16;;;21.79;80.02
13869;BME280;7004;48.206;16.402;2023-06-10T05:35:11;99389.72;;;21.68;79.82
13869;BME280;7004;48.206;16.402;2023-06-10T05:37:37;99398.81;;;22.44;76.09
13869;BME280;7004;48.206;16.402;2023-06-10T05:40:04;99392.75;;;21.96;78.12
13869;BME280;7004;48.206;16.402;2023-06-10T05:42:31;99400.47;;;21.99;78.48
13869;BME280;7004;48.206;16.402;2023-06-10T05:44:57;99404.94;;;21.53;80.12
13869;BME280;7004;48.206;16.402;2023-06-10T05:47:23;99402.88;;;22.40;76.24
13869;BME280;7004;48.206;16.402;2023-06-10T05:49:49;99405.28;;;21.81;79.29
13869;BME280;7004;48.206;16.402;2023-06-10T05:52:18;99407.94;;;21.10;81.63
13869;BME280;7004;48.206;16.402;2023-06-10T05:54:44;99410.59;;;21.19;80.97
13869;BME280;7004;48.206;16.402;2023-06-10T05:57:10;99408.97;;;21.57;80.23
13869;BME280;7004;48.206;16.402;2023-06-10T05:59:36;99415.03;;;22.13;77.91
13869;BME280;7004;48.206;16.402;2023-06-10T06:02:03;99414.47;;;22.26;77.75
13869;BME280;7004;48.206;16.402;2023-06-10T06:04:29;99411.38;;;22.06;78.75
13869;BME280;7004;48.206;16.402;2023-06-10T06:06:55;99411.03;;;21.78;79.55
13869;BME280;7004;48.206;16.402;2023-06-10T06:09:21;99416.16;;;21.65;79.36
13869;BME280;7004;48.206;16.402;2023-06-10T06:11:48;99421.13;;;20.72;83.78
13869;BME280;7004;48.206;16.402;2023-06-10T06:14:14;99417.41;;;20.90;83.42
13869;BME280;7004;48.206;16.402;2023-06-10T06:16:40;99416.38;;;20.99;83.48
13869;BME280;7004;48.206;16.402;2023-06-10T06:19:06;99416.41;;;20.83;83.47
13869;BME280;7004;48.206;16.402;2023-06-10T06:21:32;99415.34;;;21.00;83.80
13869;BME280;7004;48.206;16.402;2023-06-10T06:23:59;99414.72;;;20.90;83.31
13869;BME280;7004;48.206;16.402;2023-06-10T06:26:25;99415.72;;;21.45;81.96
13869;BME280;7004;48.206;16.402;2023-06-10T06:28:52;99419.78;;;21.80;80.59
13869;BME280;7004;48.206;16.402;2023-06-10T06:31:18;99421.66;;;21.24;82.26
13869;BME280;7004;48.206;16.402;2023-06-10T06:33:44;99421.75;;;22.09;78.14
13869;BME280;7004;48.206;16.402;2023-06-10T06:36:10;99421.88;;;21.93;79.99
13869;BME280;7004;48.206;16.402;2023-06-10T06:38:37;99420.47;;;21.26;82.30
13869;BME280;7004;48.206;16.402;2023-06-10T06:41:03;99425.25;;;21.64;80.15
13869;BME280;7004;48.206;16.402;2023-06-10T06:43:32;99425.28;;;21.00;82.83
13869;BME280;7004;48.206;16.402;2023-06-10T06:45:59;99421.91;;;20.98;84.25
13869;BME280;7004;48.206;16.402;2023-06-10T06:48:25;99419.94;;;21.78;79.86
13869;BME280;7004;48.206;16.402;2023-06-10T06:50:51;99419.09;;;20.91;82.05
13869;BME280;7004;48.206;16.402;2023-06-10T06:53:17;99415.25;;;21.41;80.85
13869;BME280;7004;48.206;16.402;2023-06-10T06:55:43;99425.25;;;21.64;80.22
13869;BME280;7004;48.206;16.402;2023-06-10T06:58:09;99429.44;;;21.66;79.70
13869;BME280;7004;48.206;16.402;2023-06-10T07:00:35;99426.69;;;21.27;81.00
13869;BME280;7004;48.206;16.402;2023-06-10T07:03:01;99431.50;;;21.56;79.23
13869;BME280;7004;48.206;16.402;2023-06-10T07:05:28;99433.69;;;22.38;76.80
13869;BME280;7004;48.206;16.402;2023-06-10T07:07:54;99425.94;;;21.57;79.70
13869;BME280;7004;48.206;16.402;2023-06-10T07:10:26;99427.31;;;21.85;79.11
13869;BME280;7004;48.206;16.402;2023-06-10T07:12:53;99426.28;;;22.40;76.75
13869;BME280;7004;48.206;16.402;2023-06-10T07:15:20;99441.22;;;21.57;77.89
13869;BME280;7004;48.206;16.402;2023-06-10T07:17:46;99435.50;;;21.60;79.09
13869;BME280;7004;48.206;16.402;2023-06-10T07:20:12;99432.72;;;22.31;76.58
13869;BME280;7004;48.206;16.402;2023-06-10T07:22:42;99439.78;;;21.77;77.60
13869;BME280;7004;48.206;16.402;2023-06-10T07:25:08;99437.16;;;22.46;75.90
13869;BME280;7004;48.206;16.402;2023-06-10T07:27:34;99433.19;;;22.80;74.91
13869;BME280;7004;48.206;16.402;2023-06-10T07:30:05;99436.31;;;22.46;75.12
13869;BME280;7004;48.206;16.402;2023-06-10T07:32:34;99434.50;;;22.23;76.51
13869;BME280;7004;48.206;16.402;2023-06-10T07:35:00;99434.25;;;22.71;74.41
13869;BME280;7004;48.206;16.402;2023-06-10T07:37:26;99433.22;;;22.57;75.09
13869;BME280;7004;48.206;16.402;2023-06-10T07:39:52;99432.09;;;22.29;76.66
13869;BME280;7004;48.206;16.402;2023-06-10T07:42:18;99434.97;;;22.27;76.34
13869;BME280;7004;48.206;16.402;2023-06-10T07:44:44;99440.22;;;22.20;76.42
13869;BME280;7004;48.206;16.402;2023-06-10T07:47:10;99442.69;;;21.99;77.72
13869;BME280;7004;48.206;16.402;2023-06-10T07:49:36;99444.06;;;21.64;77.78
13869;BME280;7004;48.206;16.402;2023-06-10T07:52:03;99436.00;;;22.18;76.02
13869;BME280;7004;48.206;16.402;2023-06-10T07:54:29;99443.47;;;21.76;77.29
13869;BME280;7004;48.206;16.402;2023-06-10T07:56:55;99446.75;;;22.18;75.34
13869;BME280;7004;48.206;16.402;2023-06-10T07:59:21;99449.81;;;22.15;76.43
13869;BME280;7004;48.206;16.402;2023-06-10T08:01:47;99445.84;;;21.79;78.04
13869;BME280;7004;48.206;16.402;2023-06-10T08:04:13;99453.66;;;21.58;78.78
13869;BME280;7004;48.206;16.402;2023-06-10T08:06:39;99452.25;;;21.70;78.21
13869;BME280;7004;48.206;16.402;2023-06-10T08:09:05;99448.22;;;22.06;77.20
13869;BME280;7004;48.206;16.402;2023-06-10T08:11:32;99454.41;;;21.44;79.04
13869;BME280;7004;48.206;16.402;2023-06-10T08:13:58;99448.13;;;21.91;78.07
13869;BME280;7004;48.206;16.402;2023-06-10T08:16:24;99453.00;;;21.56;79.22
13869;BME280;7004;48.206;16.402;2023-06-10T08:18:50;99447.75;;;22.48;75.72
13869;BME280;7004;48.206;16.402;2023-06-10T08:21:17;99450.09;;;21.66;79.83
13869;BME280;7004;48.206;16.402;2023-06-10T08:23:43;99446.47;;;22.59;75.11
13869;BME280;7004;48.206;16.402;2023-06-10T08:26:09;99455.22;;;22.61;75.84
13869;BME280;7004;48.206;16.402;2023-06-10T08:28:36;99455.94;;;21.30;80.02
13869;BME280;7004;48.206;16.402;2023-06-10T08:31:02;99456.22;;;21.35;80.78
13869;BME280;7004;48.206;16.402;2023-06-10T08:33:28;99448.91;;;21.99;78.64
13869;BME280;7004;48.206;16.402;2023-06-10T08:35:54;99450.03;;;21.34;80.61
13869;BME280;7004;48.206;16.402;2023-06-10T08:38:20;99451.44;;;22.70;75.42
13869;BME280;7004;48.206;16.402;2023-06-10T08:40:47;99455.03;;;22.16;76.46
13869;BME280;7004;48.206;16.402;2023-06-10T08:43:37;99446.69;;;22.34;77.82
13869;BME280;7004;48.206;16.402;2023-06-10T08:46:09;99448.06;;;22.30;77.03
13869;BME280;7004;48.206;16.402;2023-06-10T08:48:43;99453.88;;;22.42;76.78
13869;BME280;7004;48.206;16.402;2023-06-10T08:51:14;99451.28;;;21.94;77.57
13869;BME280;7004;48.206;16.402;2023-06-10T08:54:05;99462.25;;;21.93;78.41
13869;BME280;7004;48.206;16.402;2023-06-10T08:56:39;99458.28;;;22.58;75.77
13869;BME280;7004;48.206;16.402;2023-06-10T08:59:06;99460.75;;;22.82;75.32
13869;BME280;7004;48.206;16.402;2023-06-10T09:01:33;99457.44;;;22.80;75.17
13869;BME280;7004;48.206;16.402;2023-06-10T09:03:59;99461.16;;;22.56;76.45
13869;BME280;7004;48.206;16.402;2023-06-10T09:06:26;99462.28;;;21.45;79.62
13869;BME280;7004;48.206;16.402;2023-06-10T09:08:53;99460.72;;;21.59;78.78
13869;BME280;7004;48.206;16.402;2023-06-10T09:11:19;99458.97;;;21.74;78.64
13869;BME280;7004;48.206;16.402;2023-06-10T09:13:45;99460.94;;;22.81;75.27
13869;BME280;7004;48.206;16.402;2023-06-10T09:16:12;99459.91;;;22.13;76.82
13869;BME280;7004;48.206;16.402;2023-06-10T09:18:39;99458.88;;;22.68;76.57
13869;BME280;7004;48.206;16.402;2023-06-10T09:21:05;99457.75;;;22.39;75.10
13869;BME280;7004;48.206;16.402;2023-06-10T09:23:32;99462.06;;;22.25;76.62
13869;BME280;7004;48.206;16.402;2023-06-10T09:25:59;99453.88;;;22.42;75.48
13869;BME280;7004;48.206;16.402;2023-06-10T09:28:25;99456.84;;;22.70;74.63
13869;BME280;7004;48.206;16.402;2023-06-10T09:31:03;99448.44;;;23.47;72.70
13869;BME280;7004;48.206;16.402;2023-06-10T09:33:30;99447.44;;;22.66;72.72
13869;BME280;7004;48.206;16.402;2023-06-10T09:35:56;99450.88;;;23.42;72.02
13869;BME280;7004;48.206;16.402;2023-06-10T09:38:31;99446.31;;;23.72;68.19
13869;BME280;7004;48.206;16.402;2023-06-10T09:40:58;99440.78;;;24.17;66.84
13869;BME280;7004;48.206;16.402;2023-06-10T09:43:43;99442.47;;;24.18;67.16
13869;BME280;7004;48.206;16.402;2023-06-10T09:46:18;99446.44;;;24.22;67.23
13869;BME280;7004;48.206;16.402;2023-06-10T09:48:47;99448.94;;;23.36;69.40
13869;BME280;7004;48.206;16.402;2023-06-10T09:51:14;99444.91;;;24.13;67.04
13869;BME280;7004;48.206;16.402;2023-06-10T09:53:40;99444.22;;;24.26;68.06
13869;BME280;7004;48.206;16.402;2023-06-10T09:56:06;99439.69;;;24.33;65.01
13869;BME280;7004;48.206;16.402;2023-06-10T09:58:39;99442.00;;;24.79;64.54
13869;BME280;7004;48.206;16.402;2023-06-10T10:01:14;99440.38;;;23.77;68.69
13869;BME280;7004;48.206;16.402;2023-06-10T10:03:51;99436.34;;;23.88;67.37
13869;BME280;7004;48.206;16.402;2023-06-10T10:06:19;99438.84;;;24.47;65.64
13869;BME280;7004;48.206;16.402;2023-06-10T10:08:49;99449.31;;;23.18;67.57
13869;BME280;7004;48.206;16.402;2023-06-10T10:11:21;99436.44;;;23.80;66.36
13869;BME280;7004;48.206;16.402;2023-06-10T10:13:52;99426.91;;;23.98;66.11
13869;BME280;7004;48.206;16.402;2023-06-10T10:16:33;99431.34;;;24.28;65.71
13869;BME280;7004;48.206;16.402;2023-06-10T10:19:11;99426.50;;;24.02;65.79
13869;BME280;7004;48.206;16.402;2023-06-10T10:21:44;99422.78;;;24.03;64.88
13869;BME280;7004;48.206;16.402;2023-06-10T10:24:21;99420.72;;;24.97;63.35
13869;BME280;7004;48.206;16.402;2023-06-10T10:26:48;99418.81;;;25.61;61.29
13869;BME280;7004;48.206;16.402;2023-06-10T10:29:23;99417.53;;;25.57;59.68
13869;BME280;7004;48.206;16.402;2023-06-10T10:31:51;99413.38;;;26.42;57.78
13869;BME280;7004;48.206;16.402;2023-06-10T10:34:33;99413.22;;;26.70;54.77
13869;BME280;7004;48.206;16.402;2023-06-10T10:37:01;99414.00;;;26.24;56.68
13869;BME280;7004;48.206;16.402;2023-06-10T10:39:29;99411.28;;;27.17;54.60
13869;BME280;7004;48.206;16.402;2023-06-10T10:41:56;99404.59;;;27.20;55.64
13869;BME280;7004;48.206;16.402;2023-06-10T10:44:22;99395.66;;;26.26;57.21
13869;BME280;7004;48.206;16.402;2023-06-10T10:46:50;99405.19;;;25.96;56.56
13869;BME280;7004;48.206;16.402;2023-06-10T10:49:18;99402.34;;;26.37;57.36
13869;BME280;7004;48.206;16.402;2023-06-10T10:51:58;99401.72;;;27.60;52.80
13869;BME280;7004;48.206;16.402;2023-06-10T10:54:30;99415.50;;;26.73;56.50
13869;BME280;7004;48.206;16.402;2023-06-10T11:02:41;99397.53;;;26.32;55.47
13869;BME280;7004;48.206;16.402;2023-06-10T11:05:16;99395.88;;;26.45;55.63
13869;BME280;7004;48.206;16.402;2023-06-10T11:07:54;99395.44;;;26.34;55.43
13869;BME280;7004;48.206;16.402;2023-06-10T11:13:22;99386.28;;;26.89;54.93
13869;BME280;7004;48.206;16.402;2023-06-10T11:15:50;99383.19;;;26.58;56.51
13869;BME280;7004;48.206;16.402;2023-06-10T11:18:29;99386.19;;;27.29;52.67
13869;BME280;7004;48.206;16.402;2023-06-10T11:31:22;99355.84;;;27.90;51.51
13869;BME280;7004;48.206;16.402;2023-06-10T11:34:01;99359.63;;;26.66;52.46
13869;BME280;7004;48.206;16.402;2023-06-10T11:36:29;99361.47;;;26.78;52.45
13869;BME280;7004;48.206;16.402;2023-06-10T11:39:02;99357.34;;;27.34;54.96
13869;BME280;7004;48.206;16.402;2023-06-10T11:41:29;99342.53;;;27.82;53.02
13869;BME280;7004;48.206;16.402;2023-06-10T11:44:16;99346.00;;;28.52;50.14
13869;BME280;7004;48.206;16.402;2023-06-10T11:46:44;99349.50;;;28.03;51.04
13869;BME280;7004;48.206;16.402;2023-06-10T11:49:11;99348.88;;;28.58;50.57
13869;BME280;7004;48.206;16.402;2023-06-10T11:51:40;99344.13;;;28.71;50.92
13869;BME280;7004;48.206;16.402;2023-06-10T11:54:10;99337.56;;;28.36;48.71
13869;BME280;7004;48.206;16.402;2023-06-10T11:56:36;99348.78;;;26.72;53.21
13869;BME280;7004;48.206;16.402;2023-06-10T11:59:05;99342.16;;;28.10;50.49
13869;BME280;7004;48.206;16.402;2023-06-10T12:01:38;99344.16;;;25.93;54.82
13869;BME280;7004;48.206;16.402;2023-06-10T12:04:16;99328.84;;;25.65;55.76
13869;BME280;7004;48.206;16.402;2023-06-10T12:06:52;99329.34;;;26.82;56.26
13869;BME280;7004;48.206;16.402;2023-06-10T12:09:28;99329.78;;;26.66;54.77
13869;BME280;7004;48.206;16.402;2023-06-10T12:12:00;99330.78;;;25.71;56.26
13869;BME280;7004;48.206;16.402;2023-06-10T12:15:06;99320.34;;;28.17;50.43
13869;BME280;7004;48.206;16.402;2023-06-10T12:20:00;99323.97;;;27.34;51.28
13869;BME280;7004;48.206;16.402;2023-06-10T12:22:41;99324.97;;;26.81;52.33
13869;BME280;7004;48.206;16.402;2023-06-10T12:25:09;99330.53;;;27.06;54.52
13869;BME280;7004;48.206;16.402;2023-06-10T12:27:39;99325.22;;;27.38;52.24
13869;BME280;7004;48.206;16.402;2023-06-10T12:30:07;99324.03;;;27.14;53.80
13869;BME280;7004;48.206;16.402;2023-06-10T12:32:43;99325.31;;;27.05;53.96
13869;BME280;7004;48.206;16.402;2023-06-10T12:35:25;99325.59;;;26.83;55.09
13869;BME280;7004;48.206;16.402;2023-06-10T12:38:05;99326.44;;;25.90;58.31
13869;BME280;7004;48.206;16.402;2023-06-10T12:40:39;99323.75;;;26.50;56.74
13869;BME280;7004;48.206;16.402;2023-06-10T12:43:08;99338.34;;;26.43;55.96
13869;BME280;7004;48.206;16.402;2023-06-10T12:45:37;99359.00;;;25.07;67.63
13869;BME280;7004;48.206;16.402;2023-06-10T12:48:22;99350.66;;;23.75;75.99
13869;BME280;7004;48.206;16.402;2023-06-10T12:50:54;99340.97;;;23.66;80.54
13869;BME280;7004;48.206;16.402;2023-06-10T12:53:21;99342.97;;;23.72;80.85
13869;BME280;7004;48.206;16.402;2023-06-10T12:55:53;99340.34;;;23.64;84.76
13869;BME280;7004;48.206;16.402;2023-06-10T12:58:22;99336.97;;;24.19;82.46
13869;BME280;7004;48.206;16.402;2023-06-10T13:00:49;99335.84;;;24.35;80.83
13869;BME280;7004;48.206;16.402;2023-06-10T13:03:18;99333.91;;;24.51;80.34
13869;BME280;7004;48.206;16.402;2023-06-10T13:05:44;99332.03;;;24.02;85.56
13869;BME280;7004;48.206;16.402;2023-06-10T13:08:10;99328.31;;;24.87;80.43
13869;BME280;7004;48.206;16.402;2023-06-10T13:10:38;99324.69;;;24.17;85.34
13869;BME280;7004;48.206;16.402;2023-06-10T13:13:04;99320.44;;;24.29;85.17
13869;BME280;7004;48.206;16.402;2023-06-10T13:15:33;99316.66;;;25.21;80.73
13869;BME280;7004;48.206;16.402;2023-06-10T13:18:03;99308.75;;;25.26;80.98
13869;BME280;7004;48.206;16.402;2023-06-10T13:20:29;99308.44;;;25.43;77.07
13869;BME280;7004;48.206;16.402;2023-06-10T13:22:57;99310.81;;;25.18;79.88
13869;BME280;7004;48.206;16.402;2023-06-10T13:25:23;99313.56;;;25.24;76.33
13869;BME280;7004;48.206;16.402;2023-06-10T13:27:49;99315.22;;;24.28;79.28
13869;BME280;7004;48.206;16.402;2023-06-10T13:30:15;99316.38;;;25.10;77.74
13869;BME280;7004;48.206;16.402;2023-06-10T13:32:41;99315.50;;;25.02;79.01